createdAt,value
2019-01-04T00:00:50.533Z,1000.637
2019-01-04T00:02:50.494Z,1000.622
2019-01-04T00:04:49.623Z,1000.611
2019-01-04T00:06:49.745Z,1000.593
2019-01-04T00:08:49.639Z,1000.589
2019-01-04T00:10:50.520Z,1000.589
2019-01-04T00:12:50.523Z,1000.569
2019-01-04T00:14:50.361Z,1000.570
2019-01-04T00:16:50.345Z,1000.562
2019-01-04T00:18:50.285Z,1000.571
2019-01-04T00:20:50.144Z,1000.564
2019-01-04T00:22:49.985Z,1000.539
2019-01-04T00:24:49.861Z,1000.529
2019-01-04T00:26:50.036Z,1000.523
2019-01-04T00:28:49.905Z,1000.538
2019-01-04T00:30:49.746Z,1000.523
2019-01-04T00:32:49.764Z,1000.518
2019-01-04T00:34:49.894Z,1000.526
2019-01-04T00:36:49.997Z,1000.527
2019-01-04T00:38:49.831Z,1000.530
2019-01-04T00:40:49.865Z,1000.505
2019-01-04T00:42:49.784Z,1000.481
2019-01-04T00:44:49.621Z,1000.429
2019-01-04T00:46:49.673Z,1000.430
2019-01-04T00:48:50.534Z,1000.404
2019-01-04T00:50:50.389Z,1000.405
2019-01-04T00:52:50.264Z,1000.410
2019-01-04T00:54:50.153Z,1000.460
2019-01-04T00:56:50.212Z,1000.464
2019-01-04T00:58:50.083Z,1000.441
2019-01-04T01:00:49.972Z,1000.441
2019-01-04T01:02:49.888Z,1000.381
2019-01-04T01:04:50.282Z,1000.358
2019-01-04T01:06:50.287Z,1000.335
2019-01-04T01:08:50.162Z,1000.363
2019-01-04T01:10:50.003Z,1000.363
2019-01-04T01:12:49.822Z,1000.363
2019-01-04T01:14:49.735Z,1000.403
2019-01-04T01:16:49.863Z,1000.423
2019-01-04T01:18:49.673Z,1000.439
2019-01-04T01:20:50.616Z,1000.475
2019-01-04T01:22:50.468Z,1000.494
2019-01-04T01:24:50.443Z,1000.515
2019-01-04T01:26:49.635Z,1000.531
2019-01-04T01:28:50.458Z,1000.540
2019-01-04T01:30:50.374Z,1000.580
2019-01-04T01:32:50.217Z,1000.597
2019-01-04T01:34:50.508Z,1000.623
2019-01-04T01:36:49.672Z,1000.639
2019-01-04T01:38:50.570Z,1000.658
2019-01-04T01:40:50.476Z,1000.665
2019-01-04T01:42:50.409Z,1000.689
2019-01-04T01:44:50.279Z,1000.733
2019-01-04T01:46:50.355Z,1000.746
2019-01-04T01:48:50.253Z,1000.731
2019-01-04T01:50:50.152Z,1000.732
2019-01-04T01:52:50.067Z,1000.713
2019-01-04T01:54:49.947Z,1000.712
2019-01-04T01:56:49.943Z,1000.712
2019-01-04T01:58:49.828Z,1000.677
2019-01-04T02:00:49.668Z,1000.664
2019-01-04T02:02:49.650Z,1000.677
2019-01-04T02:04:49.842Z,1000.689
2019-01-04T02:06:50.083Z,1000.708
2019-01-04T02:08:49.989Z,1000.722
2019-01-04T02:10:49.868Z,1000.690
2019-01-04T02:12:49.806Z,1000.690
2019-01-04T02:14:49.638Z,1000.705
2019-01-04T02:16:49.773Z,1000.686
2019-01-04T02:18:49.779Z,1000.696
2019-01-04T02:20:49.730Z,1000.691
2019-01-04T02:22:49.737Z,1000.702
2019-01-04T02:24:49.706Z,1000.704
2019-01-04T02:26:49.955Z,1000.699
2019-01-04T02:28:50.096Z,1000.663
2019-01-04T02:30:49.948Z,1000.634
2019-01-04T02:32:49.786Z,1000.615
2019-01-04T02:34:50.055Z,1000.604
2019-01-04T02:36:50.153Z,1000.582
2019-01-04T02:38:50.050Z,1000.572
2019-01-04T02:40:49.940Z,1000.581
2019-01-04T02:42:49.852Z,1000.596
2019-01-04T02:44:49.806Z,1000.596
2019-01-04T02:46:49.881Z,1000.589
2019-01-04T02:48:49.786Z,1000.586
2019-01-04T02:50:49.717Z,1000.579
2019-01-04T02:52:49.657Z,1000.593
2019-01-04T02:54:50.490Z,1000.643
2019-01-04T02:56:49.673Z,1000.670
2019-01-04T02:58:50.590Z,1000.714
2019-01-04T03:00:50.439Z,1000.706
2019-01-04T03:02:50.356Z,1000.695
2019-01-04T03:04:50.485Z,1000.704
2019-01-04T03:06:50.477Z,1000.748
2019-01-04T03:08:50.366Z,1000.780
2019-01-04T03:10:50.241Z,1000.797
2019-01-04T03:12:50.083Z,1000.852
2019-01-04T03:14:49.956Z,1000.837
2019-01-04T03:16:50.005Z,1000.813
2019-01-04T03:18:49.832Z,1000.775
2019-01-04T03:20:49.879Z,1000.736
2019-01-04T03:22:49.801Z,1000.672
2019-01-04T03:24:49.786Z,1000.664
2019-01-04T03:26:49.902Z,1000.619
2019-01-04T03:28:49.785Z,1000.502
2019-01-04T03:30:49.744Z,1000.502
2019-01-04T03:32:50.564Z,1000.460
2019-01-04T03:34:49.881Z,1000.416
2019-01-04T03:36:49.928Z,1000.378
2019-01-04T03:38:49.870Z,1000.351
2019-01-04T03:40:49.767Z,1000.317
2019-01-04T03:42:49.604Z,1000.301
2019-01-04T03:44:50.472Z,1000.294
2019-01-04T03:46:50.483Z,1000.288
2019-01-04T03:48:50.368Z,1000.212
2019-01-04T03:50:50.272Z,1000.190
2019-01-04T03:52:50.130Z,1000.190
2019-01-04T03:54:49.944Z,1000.195
2019-01-04T03:56:50.056Z,1000.230
2019-01-04T03:58:49.907Z,1000.230
2019-01-04T04:00:49.797Z,1000.299
2019-01-04T04:02:49.784Z,1000.318
2019-01-04T04:04:49.982Z,1000.342
2019-01-04T04:06:50.169Z,1000.346
2019-01-04T04:08:50.027Z,1000.352
2019-01-04T04:10:49.974Z,1000.338
2019-01-04T04:12:49.779Z,1000.334
2019-01-04T04:14:49.643Z,1000.350
2019-01-04T04:16:49.637Z,1000.354
2019-01-04T04:18:50.443Z,1000.397
2019-01-04T04:20:50.369Z,1000.399
2019-01-04T04:22:50.253Z,1000.383
2019-01-04T04:24:50.108Z,1000.407
2019-01-04T04:26:50.089Z,1000.423
2019-01-04T04:28:49.957Z,1000.409
2019-01-04T04:30:49.791Z,1000.401
2019-01-04T04:32:49.766Z,1000.407
2019-01-04T04:34:50.162Z,1000.411
2019-01-04T04:36:50.304Z,1000.410
2019-01-04T04:38:50.264Z,1000.402
2019-01-04T04:40:50.170Z,1000.383
2019-01-04T04:42:50.158Z,1000.375
2019-01-04T04:44:50.031Z,1000.404
2019-01-04T04:46:50.111Z,1000.424
2019-01-04T04:48:49.981Z,1000.438
2019-01-04T04:50:49.844Z,1000.479
2019-01-04T04:52:49.756Z,1000.483
2019-01-04T04:54:49.650Z,1000.499
2019-01-04T04:56:49.864Z,1000.533
2019-01-04T04:58:49.773Z,1000.534
2019-01-04T05:00:49.631Z,1000.525
2019-01-04T05:02:50.493Z,1000.508
2019-01-04T05:04:49.727Z,1000.479
2019-01-04T05:06:49.958Z,1000.444
2019-01-04T05:08:49.932Z,1000.417
2019-01-04T05:10:49.746Z,1000.404
2019-01-04T05:12:49.636Z,1000.381
2019-01-04T05:14:50.544Z,1000.382
2019-01-04T05:16:49.664Z,1000.320
2019-01-04T05:18:50.602Z,1000.274
2019-01-04T05:20:50.478Z,1000.251
2019-01-04T05:22:50.475Z,1000.248
2019-01-04T05:24:50.325Z,1000.235
2019-01-04T05:26:50.133Z,1000.236
2019-01-04T05:28:50.007Z,1000.252
2019-01-04T05:30:49.907Z,1000.248
2019-01-04T05:32:49.785Z,1000.232
2019-01-04T05:34:50.115Z,1000.227
2019-01-04T05:36:50.148Z,1000.201
2019-01-04T05:38:50.061Z,1000.169
2019-01-04T05:40:49.922Z,1000.161
2019-01-04T05:42:49.897Z,1000.168
2019-01-04T05:44:49.809Z,1000.182
2019-01-04T05:46:49.977Z,1000.176
2019-01-04T05:48:49.805Z,1000.168
2019-01-04T05:50:49.742Z,1000.193
2019-01-04T05:52:49.714Z,1000.224
2019-01-04T05:54:50.560Z,1000.250
2019-01-04T05:56:50.598Z,1000.254
2019-01-04T05:58:50.394Z,1000.278
2019-01-04T06:00:50.301Z,1000.255
2019-01-04T06:02:50.174Z,1000.235
2019-01-04T06:04:50.477Z,1000.217
2019-01-04T06:06:50.598Z,1000.197
2019-01-04T06:08:50.410Z,1000.155
2019-01-04T06:10:50.270Z,1000.109
2019-01-04T06:12:50.106Z,1000.076
2019-01-04T06:14:50.017Z,1000.075
2019-01-04T06:16:50.036Z,1000.073
2019-01-04T06:18:49.936Z,1000.076
2019-01-04T06:20:49.783Z,1000.111
2019-01-04T06:22:49.619Z,1000.105
2019-01-04T06:24:50.510Z,1000.115
2019-01-04T06:26:49.607Z,1000.150
2019-01-04T06:28:50.468Z,1000.169
2019-01-04T06:30:50.432Z,1000.204
2019-01-04T06:32:50.240Z,1000.217
2019-01-04T06:34:50.419Z,1000.227
2019-01-04T06:36:50.114Z,1000.240
2019-01-04T06:38:49.946Z,1000.242
2019-01-04T06:40:49.855Z,1000.233
2019-01-04T06:42:49.832Z,1000.261
2019-01-04T06:44:49.687Z,1000.275
2019-01-04T06:46:49.776Z,1000.296
2019-01-04T06:48:49.682Z,1000.310
2019-01-04T06:50:50.601Z,1000.316
2019-01-04T06:52:50.520Z,1000.330
2019-01-04T06:54:50.377Z,1000.353
2019-01-04T06:56:50.480Z,1000.412
2019-01-04T06:58:50.381Z,1000.429
2019-01-04T07:00:50.268Z,1000.450
2019-01-04T07:02:50.185Z,1000.452
2019-01-04T07:04:50.319Z,1000.478
2019-01-04T07:06:50.382Z,1000.469
2019-01-04T07:08:50.364Z,1000.462
2019-01-04T07:10:50.237Z,1000.454
2019-01-04T07:12:50.103Z,1000.440
2019-01-04T07:14:49.939Z,1000.450
2019-01-04T07:16:50.072Z,1000.445
2019-01-04T07:18:49.921Z,1000.474
2019-01-04T07:20:49.805Z,1000.491
2019-01-04T07:22:49.705Z,1000.475
2019-01-04T07:24:50.592Z,1000.480
2019-01-04T07:26:49.750Z,1000.487
2019-01-04T07:28:49.619Z,1000.487
2019-01-04T07:30:50.522Z,1000.520
2019-01-04T07:32:50.311Z,1000.560
2019-01-04T07:34:50.370Z,1000.570
2019-01-04T07:36:50.502Z,1000.579
2019-01-04T07:38:50.399Z,1000.574
2019-01-04T07:40:50.304Z,1000.567
2019-01-04T07:42:50.141Z,1000.551
2019-01-04T07:44:49.919Z,1000.542
2019-01-04T07:46:51.196Z,1000.539
2019-01-04T07:48:50.087Z,1000.542
2019-01-04T07:50:49.968Z,1000.522
2019-01-04T07:52:49.841Z,1000.509
2019-01-04T07:54:49.674Z,1000.469
2019-01-04T07:56:49.886Z,1000.470
2019-01-04T07:58:49.725Z,1000.441
2019-01-04T08:00:50.554Z,1000.439
2019-01-04T08:02:50.455Z,1000.464
2019-01-04T08:04:49.692Z,1000.492
2019-01-04T08:06:49.657Z,1000.516
2019-01-04T08:08:49.589Z,1000.554
2019-01-04T08:10:50.399Z,1000.578
2019-01-04T08:12:50.249Z,1000.563
2019-01-04T08:14:50.173Z,1000.561
2019-01-04T08:16:50.239Z,1000.586
2019-01-04T08:18:50.050Z,1000.595
2019-01-04T08:20:49.914Z,1000.597
2019-01-04T08:22:49.777Z,1000.635
2019-01-04T08:24:49.653Z,1000.654
2019-01-04T08:26:49.769Z,1000.665
2019-01-04T08:28:50.583Z,1000.681
2019-01-04T08:30:50.508Z,1000.689
2019-01-04T08:32:50.371Z,1000.685
2019-01-04T08:34:49.679Z,1000.683
2019-01-04T08:36:49.841Z,1000.678
2019-01-04T08:38:49.672Z,1000.667
2019-01-04T08:40:50.593Z,1000.665
2019-01-04T08:42:50.364Z,1000.679
2019-01-04T08:44:50.203Z,1000.679
2019-01-04T08:46:50.346Z,1000.726
2019-01-04T08:48:50.133Z,1000.706
2019-01-04T08:50:49.945Z,1000.684
2019-01-04T08:52:49.945Z,1000.592
2019-01-04T08:54:49.770Z,1000.564
2019-01-04T08:56:49.817Z,1000.533
2019-01-04T08:58:49.680Z,1000.546
2019-01-04T09:00:50.456Z,1000.567
2019-01-04T09:02:50.260Z,1000.608
2019-01-04T09:04:50.394Z,1000.614
2019-01-04T09:06:50.492Z,1000.611
2019-01-04T09:08:50.408Z,1000.600
2019-01-04T09:10:50.235Z,1000.593
2019-01-04T09:12:50.252Z,1000.583
2019-01-04T09:14:50.290Z,1000.558
2019-01-04T09:16:50.469Z,1000.558
2019-01-04T09:18:50.439Z,1000.531
2019-01-04T09:20:50.555Z,1000.534
2019-01-04T09:22:50.561Z,1000.533
2019-01-04T09:24:50.555Z,1000.520
2019-01-04T09:26:49.752Z,1000.512
2019-01-04T09:28:49.825Z,1000.499
2019-01-04T09:30:49.898Z,1000.499
2019-01-04T09:32:50.002Z,1000.501
2019-01-04T09:34:50.224Z,1000.512
2019-01-04T09:36:50.455Z,1000.528
2019-01-04T09:38:50.411Z,1000.523
2019-01-04T09:40:50.453Z,1000.513
2019-01-04T09:42:50.399Z,1000.494
2019-01-04T09:44:50.339Z,1000.496
2019-01-04T09:46:49.724Z,1000.480
2019-01-04T09:48:49.819Z,1000.462
2019-01-04T09:50:49.839Z,1000.435
2019-01-04T09:52:49.848Z,1000.328
2019-01-04T09:54:49.813Z,1000.312
2019-01-04T09:56:49.936Z,1000.294
2019-01-04T09:58:49.984Z,1000.282
2019-01-04T10:00:50.009Z,1000.236
2019-01-04T10:02:50.045Z,1000.200
2019-01-04T10:04:50.292Z,1000.146
2019-01-04T10:06:50.445Z,1000.149
2019-01-04T10:08:50.463Z,1000.156
2019-01-04T10:10:50.387Z,1000.100
2019-01-04T10:12:50.498Z,1000.082
2019-01-04T10:14:50.448Z,1000.070
2019-01-04T10:16:49.791Z,1000.070
2019-01-04T10:18:49.793Z,1000.001
2019-01-04T10:20:49.843Z,1000.000
2019-01-04T10:22:49.827Z,999.979
2019-01-04T10:24:49.862Z,999.959
2019-01-04T10:26:50.176Z,999.952
2019-01-04T10:28:50.199Z,999.959
2019-01-04T10:30:50.284Z,999.953
2019-01-04T10:32:50.258Z,999.948
2019-01-04T10:34:49.718Z,999.926
2019-01-04T10:36:49.916Z,999.884
2019-01-04T10:38:49.976Z,999.878
2019-01-04T10:40:49.995Z,999.884
2019-01-04T10:42:50.103Z,999.900
2019-01-04T10:44:50.106Z,999.919
2019-01-04T10:46:50.252Z,999.937
2019-01-04T10:48:50.257Z,999.949
2019-01-04T10:50:50.305Z,999.959
2019-01-04T10:52:50.276Z,999.956
2019-01-04T10:54:50.223Z,999.947
2019-01-04T10:56:50.411Z,999.934
2019-01-04T10:58:50.471Z,999.896
2019-01-04T11:00:50.471Z,999.800
2019-01-04T11:02:49.680Z,999.740
2019-01-04T11:04:50.088Z,999.669
2019-01-04T11:06:50.262Z,999.639
2019-01-04T11:08:50.306Z,999.558
2019-01-04T11:10:50.319Z,999.521
2019-01-04T11:12:50.394Z,999.503
2019-01-04T11:14:50.376Z,999.527
2019-01-04T11:16:49.613Z,999.566
2019-01-04T11:18:49.661Z,999.583
2019-01-04T11:20:49.707Z,999.579
2019-01-04T11:22:49.773Z,999.557
2019-01-04T11:24:49.987Z,999.488
2019-01-04T11:26:50.236Z,999.488
2019-01-04T11:28:50.349Z,999.270
2019-01-04T11:30:50.468Z,999.178
2019-01-04T11:32:50.577Z,999.121
2019-01-04T11:34:49.899Z,999.102
2019-01-04T11:36:50.121Z,999.085
2019-01-04T11:38:50.133Z,999.039
2019-01-04T11:40:50.183Z,999.036
2019-01-04T11:42:50.221Z,999.036
2019-01-04T11:44:50.215Z,998.997
2019-01-04T11:46:50.493Z,998.958
2019-01-04T11:48:50.447Z,998.919
2019-01-04T11:50:50.520Z,998.899
2019-01-04T11:52:50.510Z,998.825
2019-01-04T11:54:50.472Z,998.781
2019-01-04T11:56:49.716Z,998.712
2019-01-04T11:58:49.877Z,998.701
2019-01-04T12:00:49.939Z,998.700
2019-01-04T12:02:49.950Z,998.697
2019-01-04T12:04:50.292Z,998.734
2019-01-04T12:06:50.535Z,998.741
2019-01-04T12:08:49.646Z,998.748
2019-01-04T12:10:49.737Z,998.757
2019-01-04T12:12:49.751Z,998.767
2019-01-04T12:14:49.818Z,998.796
2019-01-04T12:16:50.040Z,998.793
2019-01-04T12:18:50.062Z,998.691
2019-01-04T12:20:50.046Z,998.653
2019-01-04T12:22:50.111Z,998.567
2019-01-04T12:24:50.259Z,998.536
2019-01-04T12:26:50.434Z,998.441
2019-01-04T12:28:50.427Z,998.393
2019-01-04T12:30:50.425Z,998.348
2019-01-04T12:32:50.616Z,998.328
2019-01-04T12:34:50.214Z,998.338
2019-01-04T12:36:50.407Z,998.339
2019-01-04T12:38:50.505Z,998.339
2019-01-04T12:40:50.529Z,998.269
2019-01-04T12:42:49.597Z,998.268
2019-01-04T12:44:49.750Z,998.312
2019-01-04T12:46:50.063Z,998.303
2019-01-04T12:48:50.091Z,998.280
2019-01-04T12:50:50.103Z,998.277
2019-01-04T12:52:51.450Z,998.311
2019-01-04T12:54:50.417Z,998.242
2019-01-04T12:56:49.681Z,998.169
2019-01-04T12:58:49.743Z,998.095
2019-01-04T13:00:49.778Z,998.070
2019-01-04T13:02:49.900Z,998.042
2019-01-04T13:04:50.181Z,998.042
2019-01-04T13:06:50.388Z,997.918
2019-01-04T13:08:50.499Z,997.827
2019-01-04T13:10:50.508Z,997.831
2019-01-04T13:12:50.494Z,997.868
2019-01-04T13:14:50.494Z,997.842
2019-01-04T13:16:49.668Z,997.784
2019-01-04T13:18:49.872Z,997.766
2019-01-04T13:20:49.899Z,997.731
2019-01-04T13:22:49.970Z,997.692
2019-01-04T13:24:49.992Z,997.663
2019-01-04T13:26:50.196Z,997.677
2019-01-04T13:28:50.350Z,997.679
2019-01-04T13:30:50.325Z,997.684
2019-01-04T13:32:50.344Z,997.662
2019-01-04T13:34:49.719Z,997.633
2019-01-04T13:36:49.990Z,997.610
2019-01-04T13:38:50.020Z,997.607
2019-01-04T13:40:49.964Z,997.634
2019-01-04T13:42:49.945Z,997.663
2019-01-04T13:44:49.921Z,997.638
2019-01-04T13:46:50.143Z,997.564
2019-01-04T13:48:50.224Z,997.502
2019-01-04T13:50:50.192Z,997.443
2019-01-04T13:52:50.265Z,997.445
2019-01-04T13:54:50.267Z,997.463
2019-01-04T13:56:50.419Z,997.442
2019-01-04T13:58:50.390Z,997.472
2019-01-04T14:00:50.367Z,997.461
2019-01-04T14:02:50.374Z,997.441
2019-01-04T14:04:49.784Z,997.416
2019-01-04T14:06:50.156Z,997.419
2019-01-04T14:08:50.162Z,997.405
2019-01-04T14:10:50.253Z,997.422
2019-01-04T14:12:50.289Z,997.426
2019-01-04T14:14:50.312Z,997.437
2019-01-04T14:16:50.529Z,997.428
2019-01-04T14:18:49.625Z,997.425
2019-01-04T14:20:49.633Z,997.417
2019-01-04T14:22:49.648Z,997.393
2019-01-04T14:24:49.670Z,997.366
2019-01-04T14:26:49.871Z,997.330
2019-01-04T14:28:49.887Z,997.306
2019-01-04T14:30:49.864Z,997.271
2019-01-04T14:32:49.883Z,997.238
2019-01-04T14:34:50.279Z,997.215
2019-01-04T14:36:50.464Z,997.120
2019-01-04T14:38:50.509Z,997.088
2019-01-04T14:40:50.575Z,997.040
2019-01-04T14:42:49.630Z,996.998
2019-01-04T14:44:49.703Z,996.876
2019-01-04T14:46:50.054Z,996.808
2019-01-04T14:48:50.032Z,996.785
2019-01-04T14:50:50.039Z,996.729
2019-01-04T14:52:50.118Z,996.696
2019-01-04T14:54:50.153Z,996.656
2019-01-04T14:56:50.402Z,996.633
2019-01-04T14:58:50.366Z,996.610
2019-01-04T15:00:50.365Z,996.616
2019-01-04T15:02:50.507Z,996.598
2019-01-04T15:04:49.889Z,996.609
2019-01-04T15:06:50.124Z,996.618
2019-01-04T15:08:50.121Z,996.701
2019-01-04T15:10:50.132Z,996.724
2019-01-04T15:12:50.165Z,996.754
2019-01-04T15:14:50.189Z,996.767
2019-01-04T15:16:50.379Z,996.794
2019-01-04T15:18:50.416Z,996.772
2019-01-04T15:20:50.441Z,996.777
2019-01-04T15:22:49.621Z,996.790
2019-01-04T15:24:49.636Z,996.800
2019-01-04T15:26:49.922Z,996.850
2019-01-04T15:28:49.929Z,996.832
2019-01-04T15:30:49.927Z,996.829
2019-01-04T15:32:49.902Z,996.849
2019-01-04T15:34:50.235Z,996.862
2019-01-04T15:36:50.386Z,996.846
2019-01-04T15:38:50.376Z,996.823
2019-01-04T15:40:50.406Z,996.827
2019-01-04T15:42:50.495Z,996.829
2019-01-04T15:44:50.476Z,996.851
2019-01-04T15:46:49.691Z,996.876
2019-01-04T15:48:49.725Z,996.890
2019-01-04T15:50:49.802Z,996.897
2019-01-04T15:52:49.829Z,996.897
2019-01-04T15:54:49.876Z,997.022
2019-01-04T15:56:49.986Z,997.008
2019-01-04T15:58:50.020Z,996.997
2019-01-04T16:00:50.058Z,997.010
2019-01-04T16:02:50.048Z,997.008
2019-01-04T16:04:50.423Z,996.988
2019-01-04T16:06:49.614Z,996.988
2019-01-04T16:08:50.570Z,996.962
2019-01-04T16:10:49.696Z,996.964
2019-01-04T16:12:49.704Z,996.933
2019-01-04T16:14:49.783Z,996.919
2019-01-04T16:16:50.050Z,996.872
2019-01-04T16:18:50.070Z,996.829
2019-01-04T16:20:50.081Z,996.777
2019-01-04T16:22:50.132Z,996.622
2019-01-04T16:24:50.116Z,996.552
2019-01-04T16:26:50.177Z,996.540
2019-01-04T16:28:50.197Z,996.533
2019-01-04T16:30:50.187Z,996.544
2019-01-04T16:32:50.205Z,996.563
2019-01-04T16:34:50.487Z,996.577
2019-01-04T16:36:49.729Z,996.583
2019-01-04T16:38:49.783Z,996.574
2019-01-04T16:40:49.903Z,996.584
2019-01-04T16:42:49.963Z,996.588
2019-01-04T16:44:49.953Z,996.698
2019-01-04T16:46:50.071Z,996.729
2019-01-04T16:48:50.153Z,996.668
2019-01-04T16:50:50.179Z,996.645
2019-01-04T16:52:50.204Z,996.633
2019-01-04T16:54:50.202Z,996.637
2019-01-04T16:56:50.486Z,996.613
2019-01-04T16:58:50.565Z,996.543
2019-01-04T17:00:49.635Z,996.488
2019-01-04T17:02:49.777Z,996.435
2019-01-04T17:04:50.207Z,996.423
2019-01-04T17:06:50.415Z,996.337
2019-01-04T17:08:50.456Z,996.272
2019-01-04T17:10:50.441Z,996.212
2019-01-04T17:12:50.522Z,996.226
2019-01-04T17:14:50.605Z,996.246
2019-01-04T17:16:49.882Z,996.209
2019-01-04T17:18:49.931Z,996.186
2019-01-04T17:20:49.976Z,996.081
2019-01-04T17:22:49.994Z,996.036
2019-01-04T17:24:50.027Z,995.952
2019-01-04T17:26:50.267Z,995.912
2019-01-04T17:28:50.285Z,995.883
2019-01-04T17:30:50.373Z,995.818
2019-01-04T17:32:50.423Z,995.783
2019-01-04T17:34:49.679Z,995.775
2019-01-04T17:36:49.983Z,995.777
2019-01-04T17:38:50.069Z,995.758
2019-01-04T17:40:50.159Z,995.801
2019-01-04T17:42:50.159Z,995.810
2019-01-04T17:44:50.172Z,995.836
2019-01-04T17:46:50.436Z,995.875
2019-01-04T17:48:50.565Z,995.891
2019-01-04T17:50:50.588Z,995.842
2019-01-04T17:52:49.637Z,995.842
2019-01-04T17:54:49.674Z,995.829
2019-01-04T17:56:49.945Z,995.803
2019-01-04T17:58:49.914Z,995.711
2019-01-04T18:00:49.899Z,995.682
2019-01-04T18:02:49.950Z,995.617
2019-01-04T18:04:50.520Z,995.605
2019-01-04T18:06:49.712Z,995.576
2019-01-04T18:08:49.884Z,995.573
2019-01-04T18:10:49.909Z,995.562
2019-01-04T18:12:49.878Z,995.569
2019-01-04T18:14:49.913Z,995.559
2019-01-04T18:16:50.240Z,995.537
2019-01-04T18:18:50.336Z,995.544
2019-01-04T18:20:50.362Z,995.510
2019-01-04T18:22:50.400Z,995.437
2019-01-04T18:24:50.514Z,995.384
2019-01-04T18:26:50.000Z,995.366
2019-01-04T18:28:49.965Z,995.367
2019-01-04T18:30:50.087Z,995.376
2019-01-04T18:32:50.097Z,995.401
2019-01-04T18:34:50.569Z,995.402
2019-01-04T18:36:49.867Z,995.398
2019-01-04T18:38:49.909Z,995.387
2019-01-04T18:40:49.993Z,995.384
2019-01-04T18:42:50.037Z,995.384
2019-01-04T18:44:50.042Z,995.384
2019-01-04T18:46:50.225Z,995.446
2019-01-04T18:48:50.196Z,995.423
2019-01-04T18:50:50.256Z,995.443
2019-01-04T18:52:50.247Z,995.433
2019-01-04T18:54:50.221Z,995.424
2019-01-04T18:56:50.388Z,995.407
2019-01-04T18:58:50.444Z,995.364
2019-01-04T19:00:50.447Z,995.331
2019-01-04T19:02:50.558Z,995.314
2019-01-04T19:04:49.916Z,995.331
2019-01-04T19:06:50.101Z,995.319
2019-01-04T19:08:50.164Z,995.315
2019-01-04T19:10:50.148Z,995.317
2019-01-04T19:12:50.223Z,995.296
2019-01-04T19:14:50.223Z,995.294
2019-01-04T19:16:50.585Z,995.294
2019-01-04T19:18:49.613Z,995.296
2019-01-04T19:20:49.657Z,995.317
2019-01-04T19:22:49.884Z,995.322
2019-01-04T19:24:49.964Z,995.341
2019-01-04T19:26:50.248Z,995.345
2019-01-04T19:28:50.268Z,995.325
2019-01-04T19:30:50.281Z,995.286
2019-01-04T19:32:50.315Z,995.290
2019-01-04T19:34:49.790Z,995.237
2019-01-04T19:36:49.931Z,995.200
2019-01-04T19:38:49.932Z,995.140
2019-01-04T19:40:49.953Z,995.132
2019-01-04T19:42:49.942Z,995.160
2019-01-04T19:44:50.034Z,995.137
2019-01-04T19:46:50.359Z,995.081
2019-01-04T19:48:50.402Z,995.060
2019-01-04T19:50:50.397Z,995.078
2019-01-04T19:52:50.534Z,995.111
2019-01-04T19:54:50.533Z,995.139
2019-01-04T19:56:49.874Z,995.171
2019-01-04T19:58:49.923Z,995.178
2019-01-04T20:00:49.939Z,995.180
2019-01-04T20:02:49.998Z,995.186
2019-01-04T20:04:50.318Z,995.177
2019-01-04T20:06:49.653Z,995.173
2019-01-04T20:08:49.699Z,995.161
2019-01-04T20:10:49.874Z,995.113
2019-01-04T20:12:49.837Z,995.090
2019-01-04T20:14:49.685Z,995.067
2019-01-04T20:16:50.053Z,995.046
2019-01-04T20:18:49.871Z,995.051
2019-01-04T20:20:49.883Z,995.073
2019-01-04T20:22:50.116Z,995.073
2019-01-04T20:24:49.914Z,995.126
2019-01-04T20:26:50.082Z,995.146
2019-01-04T20:28:50.323Z,995.131
2019-01-04T20:30:50.359Z,995.161
2019-01-04T20:32:50.353Z,995.174
2019-01-04T20:34:49.705Z,995.177
2019-01-04T20:36:50.043Z,995.180
2019-01-04T20:38:50.143Z,995.176
2019-01-04T20:40:49.879Z,995.176
2019-01-04T20:42:50.594Z,995.183
2019-01-04T20:44:50.299Z,995.204
2019-01-04T20:46:50.409Z,995.199
2019-01-04T20:48:50.485Z,995.204
2019-01-04T20:50:50.177Z,995.222
2019-01-04T20:52:50.183Z,995.238
2019-01-04T20:54:49.841Z,995.238
2019-01-04T20:56:50.079Z,995.237
2019-01-04T20:58:50.335Z,995.243
2019-01-04T21:00:50.306Z,995.256
2019-01-04T21:02:50.312Z,995.272
2019-01-04T21:04:49.820Z,995.257
2019-01-04T21:06:49.840Z,995.204
2019-01-04T21:08:49.957Z,995.204
2019-01-04T21:10:49.957Z,995.132
2019-01-04T21:12:49.872Z,995.132
2019-01-04T21:14:49.965Z,995.163
2019-01-04T21:16:50.152Z,995.167
2019-01-04T21:18:49.979Z,995.216
2019-01-04T21:20:50.020Z,995.215
2019-01-04T21:22:49.676Z,995.194
2019-01-04T21:24:50.596Z,995.171
2019-01-04T21:26:49.854Z,995.180
2019-01-04T21:28:49.837Z,995.228
2019-01-04T21:30:49.824Z,995.228
2019-01-04T21:32:49.888Z,995.233
2019-01-04T21:34:49.878Z,995.261
2019-01-04T21:36:50.541Z,995.267
2019-01-04T21:38:49.666Z,995.329
2019-01-04T21:40:49.722Z,995.347
2019-01-04T21:42:49.882Z,995.349
2019-01-04T21:44:49.863Z,995.369
2019-01-04T21:46:50.023Z,995.409
2019-01-04T21:48:50.018Z,995.424
2019-01-04T21:50:49.973Z,995.404
2019-01-04T21:52:49.826Z,995.386
2019-01-04T21:54:49.809Z,995.363
2019-01-04T21:56:50.291Z,995.350
2019-01-04T21:58:50.356Z,995.344
2019-01-04T22:00:50.360Z,995.312
2019-01-04T22:02:50.385Z,995.300
2019-01-04T22:04:49.764Z,995.279
2019-01-04T22:06:50.443Z,995.266
2019-01-04T22:08:50.092Z,995.256
2019-01-04T22:10:50.071Z,995.228
2019-01-04T22:12:49.716Z,995.204
2019-01-04T22:14:49.782Z,995.182
2019-01-04T22:16:50.091Z,995.182
2019-01-04T22:18:50.083Z,995.181
2019-01-04T22:20:50.099Z,995.146
2019-01-04T22:22:50.138Z,995.111
2019-01-04T22:24:49.831Z,995.065
2019-01-04T22:26:50.022Z,995.048
2019-01-04T22:28:50.041Z,995.023
2019-01-04T22:30:50.098Z,994.990
2019-01-04T22:32:49.746Z,994.968
2019-01-04T22:34:50.241Z,994.955
2019-01-04T22:36:50.568Z,994.931
2019-01-04T22:38:50.563Z,994.911
2019-01-04T22:40:49.648Z,994.895
2019-01-04T22:42:49.694Z,994.826
2019-01-04T22:44:49.745Z,994.820
2019-01-04T22:46:50.031Z,994.799
2019-01-04T22:48:50.060Z,994.787
2019-01-04T22:50:50.095Z,994.774
2019-01-04T22:52:50.136Z,994.763
2019-01-04T22:54:50.119Z,994.744
2019-01-04T22:56:50.337Z,994.736
2019-01-04T22:58:49.985Z,994.738
2019-01-04T23:00:49.974Z,994.731
2019-01-04T23:02:50.041Z,994.734
2019-01-04T23:04:49.704Z,994.723
2019-01-04T23:06:49.979Z,994.730
2019-01-04T23:08:50.075Z,994.730
2019-01-04T23:10:50.180Z,994.692
2019-01-04T23:12:49.966Z,994.692
2019-01-04T23:14:50.025Z,994.676
2019-01-04T23:16:50.294Z,994.673
2019-01-04T23:18:50.399Z,994.685
2019-01-04T23:20:50.390Z,994.682
2019-01-04T23:22:50.527Z,994.688
2019-01-04T23:24:50.494Z,994.687
2019-01-04T23:26:49.634Z,994.690
2019-01-04T23:28:50.325Z,994.665
2019-01-04T23:30:50.009Z,994.665
2019-01-04T23:32:50.133Z,994.635
2019-01-04T23:34:50.105Z,994.608
2019-01-04T23:36:50.370Z,994.615
2019-01-04T23:38:50.403Z,994.617
2019-01-04T23:40:50.434Z,994.613
2019-01-04T23:42:50.135Z,994.620
2019-01-04T23:44:50.162Z,994.639
2019-01-04T23:46:49.847Z,994.629
2019-01-04T23:48:49.901Z,994.616
2019-01-04T23:50:49.984Z,994.597
2019-01-04T23:52:49.958Z,994.602